createdAt,value
2017-03-03T00:00:02.590Z,4.0
2017-03-03T00:05:02.748Z,4.0
2017-03-03T00:10:02.650Z,4.0
2017-03-03T00:15:02.462Z,4.0
2017-03-03T00:20:03.158Z,4.0
2017-03-03T00:25:03.281Z,4.0
2017-03-03T00:30:03.241Z,4.0
2017-03-03T00:35:03.081Z,3.7
2017-03-03T00:40:02.916Z,3.7
2017-03-03T00:45:02.914Z,3.7
2017-03-03T00:50:02.644Z,3.7
2017-03-03T00:55:02.677Z,3.7
2017-03-03T01:00:03.302Z,3.5
2017-03-03T01:05:06.178Z,3.7
2017-03-03T01:10:02.918Z,3.5
2017-03-03T01:15:02.664Z,3.5
2017-03-03T01:20:02.539Z,3.5
2017-03-03T01:25:02.485Z,3.5
2017-03-03T01:30:02.472Z,3.5
2017-03-03T01:35:02.427Z,3.5
2017-03-03T01:40:02.480Z,3.5
2017-03-03T01:45:03.399Z,3.5
2017-03-03T01:50:03.291Z,3.5
2017-03-03T01:55:03.236Z,3.5
2017-03-03T02:00:03.175Z,3.5
2017-03-03T02:05:02.919Z,3.2
2017-03-03T02:10:02.840Z,3.2
2017-03-03T02:15:02.964Z,3.2
2017-03-03T02:20:02.897Z,3.2
2017-03-03T02:25:02.603Z,3.0
2017-03-03T02:30:02.608Z,3.0
2017-03-03T02:35:03.377Z,3.0
2017-03-03T02:40:03.371Z,3.0
2017-03-03T02:45:03.455Z,3.0
2017-03-03T02:50:02.388Z,2.9
2017-03-03T02:55:03.340Z,2.7
2017-03-03T03:00:03.191Z,2.7
2017-03-03T03:05:03.187Z,2.5
2017-03-03T03:10:03.075Z,2.5
2017-03-03T03:15:02.878Z,2.5
2017-03-03T03:20:02.723Z,2.5
2017-03-03T03:25:02.410Z,2.4
2017-03-03T03:30:02.507Z,2.4
2017-03-03T03:35:03.364Z,2.4
2017-03-03T03:40:03.125Z,2.2
2017-03-03T03:45:02.963Z,2.4
2017-03-03T03:50:02.691Z,2.4
2017-03-03T03:55:03.371Z,2.2
2017-03-03T04:00:03.129Z,2.2
2017-03-03T04:05:02.957Z,2.2
2017-03-03T04:10:03.095Z,2.0
2017-03-03T04:15:03.009Z,1.8
2017-03-03T04:20:03.015Z,1.7
2017-03-03T04:25:02.783Z,1.6
2017-03-03T04:30:02.641Z,1.7
2017-03-03T04:35:02.895Z,1.7
2017-03-03T04:40:03.026Z,1.6
2017-03-03T04:45:02.910Z,1.6
2017-03-03T04:50:02.757Z,1.6
2017-03-03T04:55:02.687Z,1.3
2017-03-03T05:00:02.701Z,1.6
2017-03-03T05:05:02.694Z,1.3
2017-03-03T05:10:02.819Z,1.3
2017-03-03T05:15:02.678Z,1.3
2017-03-03T05:20:02.669Z,1.3
2017-03-03T05:25:03.385Z,1.6
2017-03-03T05:30:03.469Z,1.2
2017-03-03T05:35:02.513Z,1.2
2017-03-03T05:40:03.280Z,1.2
2017-03-03T05:45:03.150Z,1.1
2017-03-03T05:50:03.067Z,0.8
2017-03-03T05:55:02.708Z,1.2
2017-03-03T06:00:02.781Z,0.8
2017-03-03T06:05:02.733Z,1.1
2017-03-03T06:10:02.666Z,1.1
2017-03-03T06:15:03.287Z,0.8
2017-03-03T06:20:03.025Z,1.2
2017-03-03T06:25:02.844Z,1.6
2017-03-03T06:30:02.799Z,1.7
2017-03-03T06:35:02.568Z,1.7
2017-03-03T06:40:02.542Z,1.8
2017-03-03T06:45:02.460Z,2.0
2017-03-03T06:50:02.519Z,2.0
2017-03-03T06:55:03.262Z,2.2
2017-03-03T07:00:03.198Z,2.4
2017-03-03T07:05:02.975Z,2.5
2017-03-03T07:10:02.897Z,2.5
2017-03-03T07:15:02.656Z,2.7
2017-03-03T07:20:02.526Z,3.0
2017-03-03T07:25:03.355Z,3.2
2017-03-03T07:30:03.381Z,3.2
2017-03-03T07:35:03.299Z,3.5
2017-03-03T07:40:03.189Z,3.5
2017-03-03T07:45:02.907Z,3.7
2017-03-03T07:50:02.939Z,3.7
2017-03-03T07:55:02.783Z,3.7
2017-03-03T08:00:02.809Z,4.0
2017-03-03T08:05:02.629Z,4.0
2017-03-03T08:10:03.427Z,4.3
2017-03-03T08:15:03.284Z,4.5
2017-03-03T08:20:03.311Z,4.8
2017-03-03T08:25:03.276Z,5.0
2017-03-03T08:30:03.390Z,5.3
2017-03-03T08:35:03.164Z,5.5
2017-03-03T08:40:03.034Z,5.8
2017-03-03T08:45:02.936Z,5.9
2017-03-03T08:50:02.663Z,6.0
2017-03-03T08:55:02.743Z,6.0
2017-03-03T09:00:02.726Z,6.1
2017-03-03T09:05:02.510Z,6.1
2017-03-03T09:10:02.576Z,6.4
2017-03-03T09:15:03.463Z,6.5
2017-03-03T09:20:03.369Z,6.5
2017-03-03T09:25:03.215Z,6.5
2017-03-03T09:30:02.934Z,6.9
2017-03-03T09:35:02.828Z,7.1
2017-03-03T09:40:02.807Z,7.5
2017-03-03T09:45:02.908Z,7.6
2017-03-03T09:50:02.790Z,8.0
2017-03-03T09:55:02.655Z,8.1
2017-03-03T10:00:02.738Z,8.3
2017-03-03T10:05:02.831Z,8.5
2017-03-03T10:10:02.892Z,9.1
2017-03-03T10:15:02.595Z,9.0
2017-03-03T10:20:02.492Z,9.1
2017-03-03T10:25:03.126Z,9.1
2017-03-03T10:30:02.903Z,9.0
2017-03-03T10:35:02.766Z,9.0
2017-03-03T10:40:02.560Z,8.8
2017-03-03T10:45:03.380Z,9.1
2017-03-03T10:50:03.612Z,9.0
2017-03-03T10:55:03.244Z,9.8
2017-03-03T11:00:03.294Z,9.6
2017-03-03T11:05:03.168Z,10.0
2017-03-03T11:10:03.032Z,10.0
2017-03-03T11:15:02.876Z,10.5
2017-03-03T11:20:02.666Z,10.6
2017-03-03T11:25:03.431Z,10.6
2017-03-03T11:30:03.282Z,10.6
2017-03-03T11:35:03.070Z,10.3
2017-03-03T11:40:02.933Z,10.5
2017-03-03T11:45:02.666Z,10.3
2017-03-03T11:50:02.515Z,10.3
2017-03-03T11:55:03.345Z,10.3
2017-03-03T12:00:03.299Z,10.3
2017-03-03T12:05:03.116Z,10.5
2017-03-03T12:10:03.291Z,10.6
2017-03-03T12:15:03.375Z,10.5
2017-03-03T12:20:02.478Z,10.6
2017-03-03T12:25:02.416Z,10.5
2017-03-03T12:30:03.259Z,10.5
2017-03-03T12:35:03.127Z,10.3
2017-03-03T12:40:02.981Z,10.5
2017-03-03T12:45:03.028Z,10.3
2017-03-03T12:50:02.919Z,10.3
2017-03-03T12:55:03.144Z,10.5
2017-03-03T13:00:03.010Z,10.5
2017-03-03T13:05:03.152Z,10.5
2017-03-03T13:10:03.168Z,10.6
2017-03-03T13:15:03.164Z,10.6
2017-03-03T13:20:03.161Z,10.5
2017-03-03T13:25:02.962Z,10.5
2017-03-03T13:30:02.878Z,10.3
2017-03-03T13:35:02.596Z,10.3
2017-03-03T13:40:02.760Z,10.1
2017-03-03T13:45:02.820Z,10.0
2017-03-03T13:50:03.041Z,9.8
2017-03-03T13:55:02.798Z,9.6
2017-03-03T14:00:02.761Z,9.6
2017-03-03T14:05:02.894Z,9.5
2017-03-03T14:10:03.162Z,9.5
2017-03-03T14:15:03.403Z,9.5
2017-03-03T14:20:02.469Z,9.6
2017-03-03T14:25:02.473Z,9.6
2017-03-03T14:30:02.444Z,9.8
2017-03-03T14:35:03.219Z,9.8
2017-03-03T14:40:03.151Z,9.8
2017-03-03T14:45:03.036Z,10.0
2017-03-03T14:50:03.032Z,10.1
2017-03-03T14:55:03.037Z,10.1
2017-03-03T15:00:02.858Z,10.3
2017-03-03T15:05:02.902Z,10.5
2017-03-03T15:10:02.834Z,10.1
2017-03-03T15:15:02.550Z,10.1
2017-03-03T15:20:02.787Z,10.3
2017-03-03T15:25:02.842Z,10.3
2017-03-03T15:30:02.746Z,10.3
2017-03-03T15:35:02.495Z,10.3
2017-03-03T15:40:02.594Z,10.1
2017-03-03T15:45:02.514Z,10.1
2017-03-03T15:50:02.381Z,10.1
2017-03-03T15:55:02.381Z,10.1
2017-03-03T16:00:02.428Z,10.1
2017-03-03T16:05:03.431Z,10.1
2017-03-03T16:10:03.320Z,10.1
2017-03-03T16:15:03.245Z,10.0
2017-03-03T16:20:03.277Z,10.0
2017-03-03T16:25:03.191Z,10.0
2017-03-03T16:30:03.136Z,9.8
2017-03-03T16:35:03.067Z,10.0
2017-03-03T16:40:03.159Z,9.8
2017-03-03T16:45:03.211Z,9.6
2017-03-03T16:50:03.020Z,9.6
2017-03-03T16:55:02.860Z,9.6
2017-03-03T17:00:02.779Z,9.6
2017-03-03T17:05:02.830Z,9.6
2017-03-03T17:10:02.662Z,9.5
2017-03-03T17:15:02.509Z,9.6
2017-03-03T17:20:03.210Z,9.5
2017-03-03T17:25:03.023Z,9.3
2017-03-03T17:30:02.878Z,9.5
2017-03-03T17:35:02.715Z,9.3
2017-03-03T17:40:02.762Z,9.3
2017-03-03T17:45:02.413Z,9.3
2017-03-03T17:50:03.148Z,9.3
2017-03-03T17:55:02.882Z,9.3
2017-03-03T18:00:02.695Z,9.3
2017-03-03T18:05:02.580Z,9.1
2017-03-03T18:10:02.643Z,9.1
2017-03-03T18:15:03.321Z,9.5
2017-03-03T18:20:03.026Z,9.3
2017-03-03T18:25:02.919Z,9.5
2017-03-03T18:30:02.790Z,9.5
2017-03-03T18:35:02.739Z,9.3
2017-03-03T18:40:02.848Z,9.3
2017-03-03T18:45:02.658Z,9.5
2017-03-03T18:50:02.449Z,9.5
2017-03-03T18:55:03.316Z,9.5
2017-03-03T19:00:03.117Z,9.3
2017-03-03T19:05:02.955Z,9.3
2017-03-03T19:10:02.842Z,9.3
2017-03-03T19:15:02.663Z,9.1
2017-03-03T19:20:02.491Z,9.1
2017-03-03T19:25:03.331Z,9.0
2017-03-03T19:30:03.318Z,9.1
2017-03-03T19:35:03.039Z,9.0
2017-03-03T19:40:02.976Z,9.0
2017-03-03T19:45:02.693Z,9.0
2017-03-03T19:50:03.375Z,9.0
2017-03-03T19:55:03.294Z,9.0
2017-03-03T20:00:03.150Z,9.0
2017-03-03T20:05:03.036Z,9.1
2017-03-03T20:10:03.250Z,9.0
2017-03-03T20:15:03.080Z,8.8
2017-03-03T20:20:02.943Z,9.1
2017-03-03T20:25:02.959Z,9.0
2017-03-03T20:30:02.979Z,9.0
2017-03-03T20:35:03.024Z,9.0
2017-03-03T20:40:02.818Z,9.1
2017-03-03T20:45:02.563Z,9.1
2017-03-03T20:50:02.477Z,9.1
2017-03-03T20:55:03.354Z,9.1
2017-03-03T21:00:03.256Z,9.3
2017-03-03T21:05:02.907Z,9.1
2017-03-03T21:10:02.848Z,9.1
2017-03-03T21:15:02.697Z,9.1
2017-03-03T21:20:02.739Z,9.1
2017-03-03T21:25:02.455Z,9.3
2017-03-03T21:30:02.510Z,9.1
2017-03-03T21:35:03.352Z,9.1
2017-03-03T21:40:02.549Z,9.0
2017-03-03T21:45:03.333Z,9.1
2017-03-03T21:50:03.298Z,9.0
2017-03-03T21:55:03.321Z,9.1
2017-03-03T22:00:03.126Z,9.0
2017-03-03T22:05:03.239Z,9.0
2017-03-03T22:10:03.085Z,9.1
2017-03-03T22:15:03.094Z,9.0
2017-03-03T22:20:02.925Z,9.1
2017-03-03T22:25:02.746Z,9.1
2017-03-03T22:30:02.730Z,9.3
2017-03-03T22:35:02.612Z,9.3
2017-03-03T22:40:02.557Z,9.0
2017-03-03T22:45:03.420Z,9.0
2017-03-03T22:50:03.296Z,9.0
2017-03-03T22:55:03.121Z,9.0
2017-03-03T23:00:02.929Z,9.0
2017-03-03T23:05:02.997Z,9.0
2017-03-03T23:10:03.105Z,9.1
2017-03-03T23:15:02.761Z,9.1
2017-03-03T23:20:02.784Z,9.1
2017-03-03T23:25:02.868Z,9.1
2017-03-03T23:30:02.797Z,9.0
2017-03-03T23:35:02.650Z,9.0
2017-03-03T23:40:02.474Z,9.0
2017-03-03T23:45:03.305Z,9.0
2017-03-03T23:50:03.226Z,9.0
2017-03-03T23:55:02.869Z,9.0
